sensor_id;sensor_type;location;lat;lon;timestamp;pressure;altitude;pressure_sealevel;temperature
69590;BMP180;56792;50.644;17.984;2023-01-10T00:00:34;98764.60;;;4.50
69590;BMP180;56792;50.644;17.984;2023-01-10T00:03:09;98767.40;;;4.50
69590;BMP180;56792;50.644;17.984;2023-01-10T00:05:42;98770.60;;;4.50
69590;BMP180;56792;50.644;17.984;2023-01-10T00:08:18;98765.20;;;4.50
69590;BMP180;56792;50.644;17.984;2023-01-10T00:10:50;98771.00;;;4.50
69590;BMP180;56792;50.644;17.984;2023-01-10T00:13:23;98768.40;;;4.52
69590;BMP180;56792;50.644;17.984;2023-01-10T00:15:56;98768.60;;;4.50
69590;BMP180;56792;50.644;17.984;2023-01-10T00:18:28;98768.60;;;4.50
69590;BMP180;56792;50.644;17.984;2023-01-10T00:21:01;98768.40;;;4.50
69590;BMP180;56792;50.644;17.984;2023-01-10T00:23:34;98772.20;;;4.50
69590;BMP180;56792;50.644;17.984;2023-01-10T00:26:07;98776.60;;;4.50
69590;BMP180;56792;50.644;17.984;2023-01-10T00:28:39;98774.20;;;4.50
69590;BMP180;56792;50.644;17.984;2023-01-10T00:31:12;98773.00;;;4.50
69590;BMP180;56792;50.644;17.984;2023-01-10T00:33:46;98773.60;;;4.50
69590;BMP180;56792;50.644;17.984;2023-01-10T00:36:18;98774.00;;;4.50
69590;BMP180;56792;50.644;17.984;2023-01-10T00:38:50;98773.20;;;4.50
69590;BMP180;56792;50.644;17.984;2023-01-10T00:41:23;98772.60;;;4.50
69590;BMP180;56792;50.644;17.984;2023-01-10T00:44:12;98773.20;;;4.50
69590;BMP180;56792;50.644;17.984;2023-01-10T00:46:46;98781.80;;;4.50
69590;BMP180;56792;50.644;17.984;2023-01-10T00:49:18;98781.80;;;4.52
69590;BMP180;56792;50.644;17.984;2023-01-10T00:51:50;98782.80;;;4.60
69590;BMP180;56792;50.644;17.984;2023-01-10T00:54:27;98781.40;;;4.60
69590;BMP180;56792;50.644;17.984;2023-01-10T00:57:00;98795.00;;;4.60
69590;BMP180;56792;50.644;17.984;2023-01-10T00:59:32;98795.40;;;4.60
69590;BMP180;56792;50.644;17.984;2023-01-10T01:02:05;98799.40;;;4.60
69590;BMP180;56792;50.644;17.984;2023-01-10T01:04:37;98798.60;;;4.64
69590;BMP180;56792;50.644;17.984;2023-01-10T01:07:10;98802.20;;;4.68
69590;BMP180;56792;50.644;17.984;2023-01-10T01:09:43;98808.00;;;4.70
69590;BMP180;56792;50.644;17.984;2023-01-10T01:12:29;98812.20;;;4.70
69590;BMP180;56792;50.644;17.984;2023-01-10T01:15:01;98815.20;;;4.70
69590;BMP180;56792;50.644;17.984;2023-01-10T01:17:33;98817.80;;;4.70
69590;BMP180;56792;50.644;17.984;2023-01-10T01:20:08;98822.60;;;4.80
69590;BMP180;56792;50.644;17.984;2023-01-10T01:22:41;98822.80;;;4.80
69590;BMP180;56792;50.644;17.984;2023-01-10T01:25:21;98825.60;;;4.80
69590;BMP180;56792;50.644;17.984;2023-01-10T01:27:53;98825.00;;;4.82
69590;BMP180;56792;50.644;17.984;2023-01-10T01:30:26;98827.60;;;4.90
69590;BMP180;56792;50.644;17.984;2023-01-10T01:32:58;98829.20;;;4.90
69590;BMP180;56792;50.644;17.984;2023-01-10T01:35:31;98834.60;;;4.92
69590;BMP180;56792;50.644;17.984;2023-01-10T01:38:04;98840.40;;;5.00
69590;BMP180;56792;50.644;17.984;2023-01-10T01:40:37;98844.60;;;5.00
69590;BMP180;56792;50.644;17.984;2023-01-10T01:43:24;98838.00;;;5.00
69590;BMP180;56792;50.644;17.984;2023-01-10T01:45:59;98844.80;;;5.00
69590;BMP180;56792;50.644;17.984;2023-01-10T01:48:37;98844.80;;;5.10
69590;BMP180;56792;50.644;17.984;2023-01-10T01:51:16;98849.80;;;5.10
69590;BMP180;56792;50.644;17.984;2023-01-10T01:53:55;98849.20;;;5.10
69590;BMP180;56792;50.644;17.984;2023-01-10T01:56:35;98854.00;;;5.10
69590;BMP180;56792;50.644;17.984;2023-01-10T01:59:14;98857.60;;;5.10
69590;BMP180;56792;50.644;17.984;2023-01-10T02:01:51;98858.80;;;5.10
69590;BMP180;56792;50.644;17.984;2023-01-10T02:04:30;98861.60;;;5.10
69590;BMP180;56792;50.644;17.984;2023-01-10T02:07:04;98866.40;;;5.10
69590;BMP180;56792;50.644;17.984;2023-01-10T02:09:45;98863.00;;;5.16
69590;BMP180;56792;50.644;17.984;2023-01-10T02:12:19;98869.80;;;5.12
69590;BMP180;56792;50.644;17.984;2023-01-10T02:14:53;98872.80;;;5.10
69590;BMP180;56792;50.644;17.984;2023-01-10T02:17:26;98874.40;;;5.10
69590;BMP180;56792;50.644;17.984;2023-01-10T02:20:02;98874.40;;;5.10
69590;BMP180;56792;50.644;17.984;2023-01-10T02:23:33;98877.80;;;5.10
69590;BMP180;56792;50.644;17.984;2023-01-10T02:27:11;98887.60;;;5.10
69590;BMP180;56792;50.644;17.984;2023-01-10T02:33:07;98887.20;;;5.00
69590;BMP180;56792;50.644;17.984;2023-01-10T02:36:10;98894.20;;;5.00
69590;BMP180;56792;50.644;17.984;2023-01-10T02:38:59;98896.00;;;5.00
69590;BMP180;56792;50.644;17.984;2023-01-10T02:41:44;98900.00;;;5.00
69590;BMP180;56792;50.644;17.984;2023-01-10T02:44:27;98901.20;;;5.00
69590;BMP180;56792;50.644;17.984;2023-01-10T02:47:03;98902.00;;;5.00
69590;BMP180;56792;50.644;17.984;2023-01-10T02:49:45;98909.00;;;5.00
69590;BMP180;56792;50.644;17.984;2023-01-10T02:52:24;98908.80;;;5.00
69590;BMP180;56792;50.644;17.984;2023-01-10T02:55:01;98909.20;;;5.00
69590;BMP180;56792;50.644;17.984;2023-01-10T02:57:50;98910.00;;;5.10
69590;BMP180;56792;50.644;17.984;2023-01-10T03:00:40;98911.40;;;5.10
69590;BMP180;56792;50.644;17.984;2023-01-10T03:03:37;98912.60;;;5.10
69590;BMP180;56792;50.644;17.984;2023-01-10T03:06:25;98915.80;;;5.10
69590;BMP180;56792;50.644;17.984;2023-01-10T03:09:11;98921.60;;;5.10
69590;BMP180;56792;50.644;17.984;2023-01-10T03:11:50;98925.80;;;5.10
69590;BMP180;56792;50.644;17.984;2023-01-10T03:14:27;98927.80;;;5.10
69590;BMP180;56792;50.644;17.984;2023-01-10T03:17:03;98935.00;;;5.18
69590;BMP180;56792;50.644;17.984;2023-01-10T03:19:41;98938.20;;;5.20
69590;BMP180;56792;50.644;17.984;2023-01-10T03:22:15;98941.40;;;5.20
69590;BMP180;56792;50.644;17.984;2023-01-10T03:24:52;98939.40;;;5.20
69590;BMP180;56792;50.644;17.984;2023-01-10T03:27:36;98939.00;;;5.20
69590;BMP180;56792;50.644;17.984;2023-01-10T03:30:20;98944.00;;;5.20
69590;BMP180;56792;50.644;17.984;2023-01-10T03:32:56;98952.60;;;5.20
69590;BMP180;56792;50.644;17.984;2023-01-10T03:35:43;98953.40;;;5.20
69590;BMP180;56792;50.644;17.984;2023-01-10T03:38:25;98958.60;;;5.20
69590;BMP180;56792;50.644;17.984;2023-01-10T03:41:09;98963.60;;;5.20
69590;BMP180;56792;50.644;17.984;2023-01-10T03:43:47;98969.00;;;5.20
69590;BMP180;56792;50.644;17.984;2023-01-10T03:46:48;98970.40;;;5.22
69590;BMP180;56792;50.644;17.984;2023-01-10T03:49:25;98969.20;;;5.28
69590;BMP180;56792;50.644;17.984;2023-01-10T03:52:00;98976.40;;;5.30
69590;BMP180;56792;50.644;17.984;2023-01-10T03:54:33;98979.20;;;5.30
69590;BMP180;56792;50.644;17.984;2023-01-10T03:57:10;98994.20;;;5.30
69590;BMP180;56792;50.644;17.984;2023-01-10T03:59:45;99004.20;;;5.30
69590;BMP180;56792;50.644;17.984;2023-01-10T04:02:18;99000.60;;;5.30
69590;BMP180;56792;50.644;17.984;2023-01-10T04:04:51;99006.20;;;5.30
69590;BMP180;56792;50.644;17.984;2023-01-10T04:07:23;99009.80;;;5.30
69590;BMP180;56792;50.644;17.984;2023-01-10T04:09:56;99018.20;;;5.30
69590;BMP180;56792;50.644;17.984;2023-01-10T04:12:28;99020.60;;;5.30
69590;BMP180;56792;50.644;17.984;2023-01-10T04:15:00;99022.20;;;5.34
69590;BMP180;56792;50.644;17.984;2023-01-10T04:17:32;99030.80;;;5.34
69590;BMP180;56792;50.644;17.984;2023-01-10T04:20:06;99034.40;;;5.40
69590;BMP180;56792;50.644;17.984;2023-01-10T04:22:39;99036.20;;;5.40
69590;BMP180;56792;50.644;17.984;2023-01-10T04:25:12;99040.60;;;5.40
69590;BMP180;56792;50.644;17.984;2023-01-10T04:27:44;99049.40;;;5.40
69590;BMP180;56792;50.644;17.984;2023-01-10T04:30:17;99048.80;;;5.40
69590;BMP180;56792;50.644;17.984;2023-01-10T04:32:50;99055.60;;;5.40
69590;BMP180;56792;50.644;17.984;2023-01-10T04:35:22;99060.00;;;5.40
69590;BMP180;56792;50.644;17.984;2023-01-10T04:37:54;99070.00;;;5.40
69590;BMP180;56792;50.644;17.984;2023-01-10T04:40:26;99069.20;;;5.40
69590;BMP180;56792;50.644;17.984;2023-01-10T04:42:59;99069.20;;;5.40
69590;BMP180;56792;50.644;17.984;2023-01-10T04:45:31;99073.80;;;5.40
69590;BMP180;56792;50.644;17.984;2023-01-10T04:48:03;99083.00;;;5.40
69590;BMP180;56792;50.644;17.984;2023-01-10T04:50:36;99083.40;;;5.40
69590;BMP180;56792;50.644;17.984;2023-01-10T04:53:08;99089.00;;;5.40
69590;BMP180;56792;50.644;17.984;2023-01-10T04:55:40;99091.40;;;5.40
69590;BMP180;56792;50.644;17.984;2023-01-10T04:58:13;99093.20;;;5.46
69590;BMP180;56792;50.644;17.984;2023-01-10T05:00:45;99098.60;;;5.50
69590;BMP180;56792;50.644;17.984;2023-01-10T05:03:17;99101.20;;;5.42
69590;BMP180;56792;50.644;17.984;2023-01-10T05:05:49;99101.60;;;5.42
69590;BMP180;56792;50.644;17.984;2023-01-10T05:08:22;99108.40;;;5.42
69590;BMP180;56792;50.644;17.984;2023-01-10T05:10:54;99109.20;;;5.42
69590;BMP180;56792;50.644;17.984;2023-01-10T05:13:26;99112.40;;;5.40
69590;BMP180;56792;50.644;17.984;2023-01-10T05:15:59;99118.00;;;5.40
69590;BMP180;56792;50.644;17.984;2023-01-10T05:18:32;99121.40;;;5.40
69590;BMP180;56792;50.644;17.984;2023-01-10T05:21:06;99125.00;;;5.40
69590;BMP180;56792;50.644;17.984;2023-01-10T05:23:39;99125.60;;;5.40
69590;BMP180;56792;50.644;17.984;2023-01-10T05:26:15;99131.80;;;5.40
69590;BMP180;56792;50.644;17.984;2023-01-10T05:28:47;99134.80;;;5.40
69590;BMP180;56792;50.644;17.984;2023-01-10T05:31:21;99139.40;;;5.40
69590;BMP180;56792;50.644;17.984;2023-01-10T05:33:53;99144.20;;;5.40
69590;BMP180;56792;50.644;17.984;2023-01-10T05:36:26;99146.60;;;5.40
69590;BMP180;56792;50.644;17.984;2023-01-10T05:38:58;99148.00;;;5.40
69590;BMP180;56792;50.644;17.984;2023-01-10T05:41:30;99149.00;;;5.40
69590;BMP180;56792;50.644;17.984;2023-01-10T05:44:02;99155.00;;;5.40
69590;BMP180;56792;50.644;17.984;2023-01-10T05:46:35;99152.60;;;5.40
69590;BMP180;56792;50.644;17.984;2023-01-10T05:49:07;99160.20;;;5.40
69590;BMP180;56792;50.644;17.984;2023-01-10T05:51:40;99165.60;;;5.40
69590;BMP180;56792;50.644;17.984;2023-01-10T05:54:12;99170.60;;;5.40
69590;BMP180;56792;50.644;17.984;2023-01-10T05:56:44;99181.00;;;5.40
69590;BMP180;56792;50.644;17.984;2023-01-10T05:59:17;99178.80;;;5.40
69590;BMP180;56792;50.644;17.984;2023-01-10T06:01:49;99187.20;;;5.38
69590;BMP180;56792;50.644;17.984;2023-01-10T06:04:21;99188.20;;;5.36
69590;BMP180;56792;50.644;17.984;2023-01-10T06:06:54;99196.00;;;5.30
69590;BMP180;56792;50.644;17.984;2023-01-10T06:09:26;99201.40;;;5.30
69590;BMP180;56792;50.644;17.984;2023-01-10T06:11:58;99207.40;;;5.30
69590;BMP180;56792;50.644;17.984;2023-01-10T06:14:30;99208.00;;;5.30
69590;BMP180;56792;50.644;17.984;2023-01-10T06:17:03;99216.80;;;5.30
69590;BMP180;56792;50.644;17.984;2023-01-10T06:19:39;99222.40;;;5.30
69590;BMP180;56792;50.644;17.984;2023-01-10T06:22:11;99231.00;;;5.30
69590;BMP180;56792;50.644;17.984;2023-01-10T06:24:44;99234.00;;;5.30
69590;BMP180;56792;50.644;17.984;2023-01-10T06:27:18;99238.40;;;5.30
69590;BMP180;56792;50.644;17.984;2023-01-10T06:29:50;99242.00;;;5.30
69590;BMP180;56792;50.644;17.984;2023-01-10T06:32:22;99245.00;;;5.30
69590;BMP180;56792;50.644;17.984;2023-01-10T06:34:54;99249.80;;;5.30
69590;BMP180;56792;50.644;17.984;2023-01-10T06:37:27;99253.20;;;5.22
69590;BMP180;56792;50.644;17.984;2023-01-10T06:40:00;99257.40;;;5.30
69590;BMP180;56792;50.644;17.984;2023-01-10T06:42:32;99261.00;;;5.30
69590;BMP180;56792;50.644;17.984;2023-01-10T06:45:05;99265.00;;;5.28
69590;BMP180;56792;50.644;17.984;2023-01-10T06:47:38;99272.00;;;5.30
69590;BMP180;56792;50.644;17.984;2023-01-10T06:50:13;99277.40;;;5.20
69590;BMP180;56792;50.644;17.984;2023-01-10T06:52:45;99281.20;;;5.20
69590;BMP180;56792;50.644;17.984;2023-01-10T06:55:18;99286.20;;;5.20
69590;BMP180;56792;50.644;17.984;2023-01-10T06:57:55;99288.20;;;5.30
69590;BMP180;56792;50.644;17.984;2023-01-10T07:00:30;99296.40;;;5.30
69590;BMP180;56792;50.644;17.984;2023-01-10T07:03:03;99296.20;;;5.30
69590;BMP180;56792;50.644;17.984;2023-01-10T07:05:36;99305.60;;;5.30
69590;BMP180;56792;50.644;17.984;2023-01-10T07:08:09;99308.60;;;5.30
69590;BMP180;56792;50.644;17.984;2023-01-10T07:10:44;99313.40;;;5.30
69590;BMP180;56792;50.644;17.984;2023-01-10T07:13:16;99318.40;;;5.30
69590;BMP180;56792;50.644;17.984;2023-01-10T07:15:49;99325.20;;;5.30
69590;BMP180;56792;50.644;17.984;2023-01-10T07:18:21;99324.20;;;5.30
69590;BMP180;56792;50.644;17.984;2023-01-10T07:20:54;99333.00;;;5.30
69590;BMP180;56792;50.644;17.984;2023-01-10T07:23:26;99335.80;;;5.30
69590;BMP180;56792;50.644;17.984;2023-01-10T07:26:03;99345.00;;;5.30
69590;BMP180;56792;50.644;17.984;2023-01-10T07:28:36;99346.80;;;5.30
69590;BMP180;56792;50.644;17.984;2023-01-10T07:31:12;99350.20;;;5.30
69590;BMP180;56792;50.644;17.984;2023-01-10T07:33:45;99358.60;;;5.30
69590;BMP180;56792;50.644;17.984;2023-01-10T07:36:18;99361.60;;;5.28
69590;BMP180;56792;50.644;17.984;2023-01-10T07:38:51;99367.40;;;5.30
69590;BMP180;56792;50.644;17.984;2023-01-10T07:41:23;99366.80;;;5.20
69590;BMP180;56792;50.644;17.984;2023-01-10T07:43:55;99368.80;;;5.20
69590;BMP180;56792;50.644;17.984;2023-01-10T07:46:28;99371.60;;;5.20
69590;BMP180;56792;50.644;17.984;2023-01-10T07:49:00;99378.40;;;5.20
69590;BMP180;56792;50.644;17.984;2023-01-10T07:51:32;99379.80;;;5.20
69590;BMP180;56792;50.644;17.984;2023-01-10T07:54:05;99373.00;;;5.20
69590;BMP180;56792;50.644;17.984;2023-01-10T07:56:38;99371.80;;;5.20
69590;BMP180;56792;50.644;17.984;2023-01-10T07:59:10;99371.40;;;5.20
69590;BMP180;56792;50.644;17.984;2023-01-10T08:01:43;99379.00;;;5.20
69590;BMP180;56792;50.644;17.984;2023-01-10T08:04:17;99379.40;;;5.20
69590;BMP180;56792;50.644;17.984;2023-01-10T08:06:49;99381.20;;;5.20
69590;BMP180;56792;50.644;17.984;2023-01-10T08:09:21;99383.00;;;5.20
69590;BMP180;56792;50.644;17.984;2023-01-10T08:11:53;99385.80;;;5.24
69590;BMP180;56792;50.644;17.984;2023-01-10T08:14:25;99393.40;;;5.30
69590;BMP180;56792;50.644;17.984;2023-01-10T08:16:58;99396.60;;;5.30
69590;BMP180;56792;50.644;17.984;2023-01-10T08:19:31;99399.20;;;5.30
69590;BMP180;56792;50.644;17.984;2023-01-10T08:22:03;99401.60;;;5.30
69590;BMP180;56792;50.644;17.984;2023-01-10T08:24:35;99410.80;;;5.30
69590;BMP180;56792;50.644;17.984;2023-01-10T08:27:08;99413.60;;;5.40
69590;BMP180;56792;50.644;17.984;2023-01-10T08:29:40;99417.80;;;5.40
69590;BMP180;56792;50.644;17.984;2023-01-10T08:32:13;99420.00;;;5.40
69590;BMP180;56792;50.644;17.984;2023-01-10T08:34:45;99427.40;;;5.40
69590;BMP180;56792;50.644;17.984;2023-01-10T08:37:17;99429.60;;;5.40
69590;BMP180;56792;50.644;17.984;2023-01-10T08:39:50;99437.80;;;5.40
69590;BMP180;56792;50.644;17.984;2023-01-10T08:42:22;99441.00;;;5.40
69590;BMP180;56792;50.644;17.984;2023-01-10T08:44:55;99446.40;;;5.40
69590;BMP180;56792;50.644;17.984;2023-01-10T08:47:28;99444.80;;;5.40
69590;BMP180;56792;50.644;17.984;2023-01-10T08:50:00;99446.60;;;5.48
69590;BMP180;56792;50.644;17.984;2023-01-10T08:52:33;99450.60;;;5.50
69590;BMP180;56792;50.644;17.984;2023-01-10T08:55:06;99450.80;;;5.50
69590;BMP180;56792;50.644;17.984;2023-01-10T08:57:38;99449.40;;;5.50
69590;BMP180;56792;50.644;17.984;2023-01-10T09:00:13;99454.00;;;5.50
69590;BMP180;56792;50.644;17.984;2023-01-10T09:02:45;99457.20;;;5.52
69590;BMP180;56792;50.644;17.984;2023-01-10T09:05:18;99460.20;;;5.60
69590;BMP180;56792;50.644;17.984;2023-01-10T09:07:50;99458.00;;;5.60
69590;BMP180;56792;50.644;17.984;2023-01-10T09:10:22;99470.00;;;5.60
69590;BMP180;56792;50.644;17.984;2023-01-10T09:12:55;99473.40;;;5.60
69590;BMP180;56792;50.644;17.984;2023-01-10T09:15:32;99480.00;;;5.60
69590;BMP180;56792;50.644;17.984;2023-01-10T09:18:08;99486.80;;;5.60
69590;BMP180;56792;50.644;17.984;2023-01-10T09:20:42;99491.00;;;5.60
69590;BMP180;56792;50.644;17.984;2023-01-10T09:23:18;99497.00;;;5.60
69590;BMP180;56792;50.644;17.984;2023-01-10T09:25:53;99504.80;;;5.60
69590;BMP180;56792;50.644;17.984;2023-01-10T09:28:27;99515.80;;;5.70
69590;BMP180;56792;50.644;17.984;2023-01-10T09:30:59;99517.40;;;5.70
69590;BMP180;56792;50.644;17.984;2023-01-10T09:33:33;99527.80;;;5.70
69590;BMP180;56792;50.644;17.984;2023-01-10T09:36:07;99528.00;;;5.70
69590;BMP180;56792;50.644;17.984;2023-01-10T09:38:40;99536.00;;;5.70
69590;BMP180;56792;50.644;17.984;2023-01-10T09:44:28;99553.00;;;5.70
69590;BMP180;56792;50.644;17.984;2023-01-10T09:47:10;99548.00;;;5.80
69590;BMP180;56792;50.644;17.984;2023-01-10T09:49:55;99546.00;;;5.78
69590;BMP180;56792;50.644;17.984;2023-01-10T09:52:34;99540.80;;;5.80
69590;BMP180;56792;50.644;17.984;2023-01-10T09:55:24;99537.00;;;5.80
69590;BMP180;56792;50.644;17.984;2023-01-10T09:57:59;99530.20;;;5.80
69590;BMP180;56792;50.644;17.984;2023-01-10T10:00:41;99528.40;;;5.82
69590;BMP180;56792;50.644;17.984;2023-01-10T10:03:26;99528.40;;;5.80
69590;BMP180;56792;50.644;17.984;2023-01-10T10:06:00;99527.80;;;5.90
69590;BMP180;56792;50.644;17.984;2023-01-10T10:08:33;99525.00;;;5.90
69590;BMP180;56792;50.644;17.984;2023-01-10T10:11:35;99533.20;;;5.90
69590;BMP180;56792;50.644;17.984;2023-01-10T10:14:22;99539.40;;;5.90
69590;BMP180;56792;50.644;17.984;2023-01-10T10:17:17;99538.00;;;5.90
69590;BMP180;56792;50.644;17.984;2023-01-10T10:20:09;99536.40;;;5.90
69590;BMP180;56792;50.644;17.984;2023-01-10T10:22:55;99542.80;;;5.90
69590;BMP180;56792;50.644;17.984;2023-01-10T10:25:53;99547.00;;;5.90
69590;BMP180;56792;50.644;17.984;2023-01-10T10:29:05;99552.20;;;5.90
69590;BMP180;56792;50.644;17.984;2023-01-10T10:32:12;99552.60;;;5.90
69590;BMP180;56792;50.644;17.984;2023-01-10T10:34:54;99561.00;;;5.90
69590;BMP180;56792;50.644;17.984;2023-01-10T10:37:32;99556.40;;;5.88
69590;BMP180;56792;50.644;17.984;2023-01-10T10:40:17;99566.60;;;5.88
69590;BMP180;56792;50.644;17.984;2023-01-10T10:42:53;99571.00;;;5.86
69590;BMP180;56792;50.644;17.984;2023-01-10T10:45:35;99575.60;;;5.82
69590;BMP180;56792;50.644;17.984;2023-01-10T10:48:18;99574.60;;;5.90
69590;BMP180;56792;50.644;17.984;2023-01-10T10:51:01;99576.00;;;5.86
69590;BMP180;56792;50.644;17.984;2023-01-10T10:53:35;99583.80;;;5.80
69590;BMP180;56792;50.644;17.984;2023-01-10T10:56:15;99588.20;;;5.80
69590;BMP180;56792;50.644;17.984;2023-01-10T10:58:52;99591.20;;;5.80
69590;BMP180;56792;50.644;17.984;2023-01-10T11:01:25;99595.40;;;5.88
69590;BMP180;56792;50.644;17.984;2023-01-10T11:04:02;99595.40;;;5.88
69590;BMP180;56792;50.644;17.984;2023-01-10T11:06:39;99599.20;;;5.80
69590;BMP180;56792;50.644;17.984;2023-01-10T11:09:21;99603.20;;;5.90
69590;BMP180;56792;50.644;17.984;2023-01-10T11:11:57;99603.40;;;5.90
69590;BMP180;56792;50.644;17.984;2023-01-10T11:14:47;99603.40;;;5.90
69590;BMP180;56792;50.644;17.984;2023-01-10T11:17:27;99609.20;;;6.00
69590;BMP180;56792;50.644;17.984;2023-01-10T11:20:03;99610.40;;;6.00
69590;BMP180;56792;50.644;17.984;2023-01-10T11:22:45;99614.00;;;6.04
69590;BMP180;56792;50.644;17.984;2023-01-10T11:25:21;99612.80;;;6.00
69590;BMP180;56792;50.644;17.984;2023-01-10T11:27:58;99617.20;;;6.00
69590;BMP180;56792;50.644;17.984;2023-01-10T11:30:33;99617.20;;;6.06
69590;BMP180;56792;50.644;17.984;2023-01-10T11:33:15;99621.40;;;6.10
69590;BMP180;56792;50.644;17.984;2023-01-10T11:36:01;99622.60;;;6.10
69590;BMP180;56792;50.644;17.984;2023-01-10T11:38:34;99622.80;;;6.10
69590;BMP180;56792;50.644;17.984;2023-01-10T11:41:24;99623.80;;;6.10
69590;BMP180;56792;50.644;17.984;2023-01-10T11:44:20;99627.40;;;6.20
69590;BMP180;56792;50.644;17.984;2023-01-10T11:46:55;99631.20;;;6.20
69590;BMP180;56792;50.644;17.984;2023-01-10T11:49:33;99634.00;;;6.20
69590;BMP180;56792;50.644;17.984;2023-01-10T11:52:17;99630.40;;;6.20
69590;BMP180;56792;50.644;17.984;2023-01-10T11:54:52;99628.20;;;6.20
69590;BMP180;56792;50.644;17.984;2023-01-10T11:57:28;99633.60;;;6.20
69590;BMP180;56792;50.644;17.984;2023-01-10T12:00:05;99638.40;;;6.20
69590;BMP180;56792;50.644;17.984;2023-01-10T12:02:45;99641.60;;;6.20
69590;BMP180;56792;50.644;17.984;2023-01-10T12:05:23;99645.60;;;6.20
69590;BMP180;56792;50.644;17.984;2023-01-10T12:08:01;99644.60;;;6.20
69590;BMP180;56792;50.644;17.984;2023-01-10T12:10:36;99651.40;;;6.20
69590;BMP180;56792;50.644;17.984;2023-01-10T12:13:17;99650.00;;;6.24
69590;BMP180;56792;50.644;17.984;2023-01-10T12:15:49;99658.60;;;6.30
69590;BMP180;56792;50.644;17.984;2023-01-10T12:18:22;99661.40;;;6.30
69590;BMP180;56792;50.644;17.984;2023-01-10T12:20:55;99661.00;;;6.30
69590;BMP180;56792;50.644;17.984;2023-01-10T12:23:31;99663.40;;;6.30
69590;BMP180;56792;50.644;17.984;2023-01-10T12:26:07;99668.00;;;6.30
69590;BMP180;56792;50.644;17.984;2023-01-10T12:28:49;99664.60;;;6.30
69590;BMP180;56792;50.644;17.984;2023-01-10T12:31:24;99666.00;;;6.30
69590;BMP180;56792;50.644;17.984;2023-01-10T12:34:02;99673.80;;;6.38
69590;BMP180;56792;50.644;17.984;2023-01-10T12:36:45;99690.80;;;6.40
69590;BMP180;56792;50.644;17.984;2023-01-10T12:39:27;99688.00;;;6.40
69590;BMP180;56792;50.644;17.984;2023-01-10T12:42:21;99692.80;;;6.40
69590;BMP180;56792;50.644;17.984;2023-01-10T12:45:21;99689.00;;;6.40
69590;BMP180;56792;50.644;17.984;2023-01-10T12:48:01;99695.20;;;6.40
69590;BMP180;56792;50.644;17.984;2023-01-10T12:50:42;99702.80;;;6.40
69590;BMP180;56792;50.644;17.984;2023-01-10T12:53:27;99705.40;;;6.50
69590;BMP180;56792;50.644;17.984;2023-01-10T12:56:02;99701.40;;;6.60
69590;BMP180;56792;50.644;17.984;2023-01-10T12:58:44;99702.40;;;6.70
69590;BMP180;56792;50.644;17.984;2023-01-10T13:01:23;99712.80;;;6.70
69590;BMP180;56792;50.644;17.984;2023-01-10T13:04:04;99708.40;;;6.70
69590;BMP180;56792;50.644;17.984;2023-01-10T13:06:41;99709.60;;;6.80
69590;BMP180;56792;50.644;17.984;2023-01-10T13:09:18;99716.60;;;6.90
69590;BMP180;56792;50.644;17.984;2023-01-10T13:11:58;99717.40;;;6.90
69590;BMP180;56792;50.644;17.984;2023-01-10T13:14:38;99720.80;;;6.90
69590;BMP180;56792;50.644;17.984;2023-01-10T13:17:30;99726.00;;;6.90
69590;BMP180;56792;50.644;17.984;2023-01-10T13:20:41;99729.00;;;6.84
69590;BMP180;56792;50.644;17.984;2023-01-10T13:23:26;99736.40;;;6.86
69590;BMP180;56792;50.644;17.984;2023-01-10T13:26:05;99744.20;;;6.90
69590;BMP180;56792;50.644;17.984;2023-01-10T13:28:53;99745.80;;;6.90
69590;BMP180;56792;50.644;17.984;2023-01-10T13:31:30;99755.00;;;6.90
69590;BMP180;56792;50.644;17.984;2023-01-10T13:34:07;99757.00;;;6.82
69590;BMP180;56792;50.644;17.984;2023-01-10T13:36:44;99759.20;;;6.80
69590;BMP180;56792;50.644;17.984;2023-01-10T13:39:28;99771.80;;;6.80
69590;BMP180;56792;50.644;17.984;2023-01-10T13:42:28;99772.40;;;6.80
69590;BMP180;56792;50.644;17.984;2023-01-10T13:45:31;99769.20;;;6.80
69590;BMP180;56792;50.644;17.984;2023-01-10T13:48:28;99774.00;;;6.80
69590;BMP180;56792;50.644;17.984;2023-01-10T13:51:14;99770.00;;;6.80
69590;BMP180;56792;50.644;17.984;2023-01-10T13:53:57;99773.80;;;6.80
69590;BMP180;56792;50.644;17.984;2023-01-10T13:56:39;99776.60;;;6.80
69590;BMP180;56792;50.644;17.984;2023-01-10T14:02:48;99785.00;;;6.80
69590;BMP180;56792;50.644;17.984;2023-01-10T14:05:20;99791.60;;;6.80
69590;BMP180;56792;50.644;17.984;2023-01-10T14:07:54;99794.00;;;6.80
69590;BMP180;56792;50.644;17.984;2023-01-10T14:10:30;99795.80;;;6.82
69590;BMP180;56792;50.644;17.984;2023-01-10T14:13:06;99792.40;;;6.80
69590;BMP180;56792;50.644;17.984;2023-01-10T14:15:48;99792.80;;;6.80
69590;BMP180;56792;50.644;17.984;2023-01-10T14:18:27;99795.40;;;6.80
69590;BMP180;56792;50.644;17.984;2023-01-10T14:21:05;99800.80;;;6.80
69590;BMP180;56792;50.644;17.984;2023-01-10T14:23:41;99805.20;;;6.80
69590;BMP180;56792;50.644;17.984;2023-01-10T14:26:28;99806.20;;;6.70
69590;BMP180;56792;50.644;17.984;2023-01-10T14:29:06;99810.60;;;6.70
69590;BMP180;56792;50.644;17.984;2023-01-10T14:31:46;99818.80;;;6.70
69590;BMP180;56792;50.644;17.984;2023-01-10T14:34:26;99820.40;;;6.60
69590;BMP180;56792;50.644;17.984;2023-01-10T14:37:05;99820.60;;;6.60
69590;BMP180;56792;50.644;17.984;2023-01-10T14:39:39;99822.60;;;6.50
69590;BMP180;56792;50.644;17.984;2023-01-10T14:42:17;99825.80;;;6.50
69590;BMP180;56792;50.644;17.984;2023-01-10T14:44:58;99824.40;;;6.50
69590;BMP180;56792;50.644;17.984;2023-01-10T14:47:35;99817.40;;;6.50
69590;BMP180;56792;50.644;17.984;2023-01-10T14:53:28;99841.00;;;6.42
69590;BMP180;56792;50.644;17.984;2023-01-10T14:56:01;99846.60;;;6.40
69590;BMP180;56792;50.644;17.984;2023-01-10T14:58:33;99844.80;;;6.40
69590;BMP180;56792;50.644;17.984;2023-01-10T15:01:07;99848.40;;;6.40
69590;BMP180;56792;50.644;17.984;2023-01-10T15:03:47;99848.80;;;6.30
69590;BMP180;56792;50.644;17.984;2023-01-10T15:06:19;99854.40;;;6.30
69590;BMP180;56792;50.644;17.984;2023-01-10T15:09:01;99858.20;;;6.30
69590;BMP180;56792;50.644;17.984;2023-01-10T15:11:34;99858.20;;;6.30
69590;BMP180;56792;50.644;17.984;2023-01-10T15:14:10;99855.40;;;6.20
69590;BMP180;56792;50.644;17.984;2023-01-10T15:16:48;99860.20;;;6.20
69590;BMP180;56792;50.644;17.984;2023-01-10T15:19:23;99866.40;;;6.12